Olivenhain (182, 1250) Station Data

Red Flag Warning: No
Fire Weather Zone: 250
SDGE Region: North East
Lat/Lon: 33.08/-117.13

Observations

Time Wind Speed/Gust Temp(F) RH Fuel Moist Fuel Temp(F) Dewpt(F) Tmax(F) Tmin(F) Accum Precip 10-min Precip SL Press(mb)
6/27 5:00pm 209 12 G 14 78° 48% - - 57° 88.3° 73.4° - - -
6/27 4:50pm 214 11 G 14 78° 47% - - 56° 88.3° 73.4° - - -
6/27 4:40pm 210 11 G 14 79° 45% - - 56° 88.3° 73.4° - - -
6/27 4:30pm 220 12 G 17 79° 44% - - 55° 88.3° 73.4° - - -
6/27 4:20pm 221 13 G 15 80° 43% - - 55° 88.3° 73.4° - - -
6/27 4:10pm 215 13 G 16 79° 40% - - 53° 88.3° 73.4° - - -
6/27 4:00pm 216 12 G 16 80° 41% - - 54° 88.3° 73.4° - - -
6/27 3:50pm 215 13 G 16 80° 42% - - 55° 88.3° 73.4° - - -
6/27 3:40pm 213 12 G 15 79° 43% - - 55° 88.3° 73.4° - - -
6/27 3:30pm 216 13 G 16 80° 42% - - 55° 88.3° 73.4° - - -
6/27 3:20pm 216 13 G 16 80° 39% - - 53° 88.3° 73.4° - - -
6/27 3:10pm 216 13 G 17 80° 40% - - 54° 88.3° 73.4° - - -
6/27 3:00pm 221 13 G 17 81° 38% - - 53° 88.3° 73.4° - - -
6/27 2:50pm 217 13 G 16 81° 38% - - 53° 88.3° 73.4° - - -
6/27 2:40pm 216 13 G 18 80° 41% - - 55° 88.3° 73.4° - - -
6/27 2:30pm 218 13 G 17 81° 39% - - 54° 88.3° 73.4° - - -
6/27 2:20pm 218 13 G 18 82° 38% - - 54° 88.3° 73.4° - - -
6/27 2:10pm 216 14 G 18 82° 37% - - 53° 88.3° 73.4° - - -
6/27 2:00pm 219 12 G 16 82° 39% - - 54° 88.3° 73.4° - - -
6/27 1:50pm 219 13 G 16 82° 42% - - 56° 88.3° 73.4° - - -
6/27 1:40pm 216 14 G 18 83° 42% - - 57° 88.3° 73.4° - - -
6/27 1:30pm 217 13 G 19 83° 40% - - 56° 88.3° 73.4° - - -
6/27 1:20pm 211 14 G 18 84° 40% - - 57° 88.3° 73.4° - - -
6/27 1:10pm 209 13 G 17 85° 38% - - 56° 88.3° 73.4° - - -
6/27 1:00pm 199 13 G 17 86° 36% - - 56° 88.3° 73.4° - - -
6/27 12:50pm 204 11 G 15 86° 33% - - 54° 88.3° 73.4° - - -
6/27 12:40pm 197 11 G 14 86° 33% - - 54° 88.3° 73.4° - - -
6/27 12:30pm 200 12 G 15 86° 32% - - 53° 88.3° 73.4° - - -
6/27 12:20pm 199 11 G 14 86° 31% - - 53° 88.3° 73.4° - - -
6/27 12:10pm 201 11 G 15 86° 32% - - 53° 88.3° 73.4° - - -
6/27 12:00pm 199 11 G 14 86° 35% - - 55° 88.3° 73.4° - - -
6/27 11:50am 205 11 G 15 85° 37% - - 56° 88.3° 73.4° - - -
6/27 11:40am 206 12 G 14 85° 39% - - 57° 88.3° 73.4° - - -
6/27 11:30am 202 11 G 15 85° 39% - - 58° 88.3° 73.4° - - -
6/27 11:20am 198 10 G 14 86° 40% - - 59° 88.3° 73.4° - - -
6/27 11:10am 193 10 G 14 85° 40% - - 59° 88.3° 73.4° - - -
6/27 11:00am 189 9 G 12 86° 36% - - 56° 88.3° 73.4° - - -
6/27 10:50am 189 8 G 10 87° 31% - - 52° 88.3° 73.4° - - -
6/27 10:40am 173 5 G 8 87° 19% - - 40° 88.3° 73.4° - - -
6/27 10:30am 170 5 G 6 87° 19% - - 40° 88.2° 73.4° - - -
6/27 10:20am 172 4 G 6 86° 22% - - 43° 87.5° 73.4° - - -
6/27 10:10am 174 5 G 7 85° 23% - - 44° 87.5° 73.4° - - -
6/27 10:00am 175 5 G 7 84° 27% - - 47° 87.5° 73.4° - - -
6/27 9:50am 173 5 G 6 83° 29% - - 48° 87.5° 73.4° - - -
6/27 9:40am 175 5 G 6 84° 29% - - 48° 87.5° 73.4° - - -
6/27 9:30am 176 5 G 6 83° 28% - - 47° 87.5° 73.4° - - -
6/27 9:20am 168 3 G 5 84° 25% - - 44° 87.5° 73.4° - - -
6/27 9:10am 150 2 G 3 86° 19% - - 39° 87.5° 73.4° - - -
6/27 9:00am 88 1 G 3 87° 20% - - 41° 87.5° 73.4° - - -
6/27 8:50am 92 2 G 3 85° 18% - - 37° 86.3° 73.4° - - -
6/27 8:40am 161 2 G 4 85° 16% - - 34° 85.7° 73.4° - - -
6/27 8:30am 130 1 G 2 84° 18% - - 37° 85.5° 73.4° - - -
6/27 8:20am 37 2 G 4 83° 19% - - 36° 83.9° 73.4° - - -
6/27 8:10am 29 3 G 5 81° 17% - - 32° 82.2° 73.4° - - -
6/27 8:00am 29 3 G 4 81° 18% - - 34° 81.8° 73.4° - - -
6/27 7:50am 17 3 G 5 79° 20% - - 34° 80.8° 73.4° - - -
6/27 7:40am 27 4 G 6 78° 18% - - 31° 80.8° 73.4° - - -
6/27 7:30am 29 5 G 7 77° 18% - - 30° 80.8° 73.4° - - -
6/27 7:20am 25 6 G 7 76° 18% - - 30° 80.8° 73.4° - - -
6/27 7:10am 33 5 G 6 77° 19% - - 31° 80.8° 73.4° - - -
6/27 7:00am 37 4 G 6 77° 20% - - 33° 80.8° 73.4° - - -
6/27 6:50am 16 3 G 4 77° 19% - - 32° 80.8° 73.4° - - -
6/27 6:40am 25 3 G 4 77° 18% - - 30° 80.8° 73.4° - - -
6/27 6:30am 24 3 G 4 76° 18% - - 30° 80.8° 73.4° - - -
6/27 6:20am 17 4 G 4 75° 18% - - 29° 80.8° 73.4° - - -
6/27 6:10am 22 4 G 5 74° 20% - - 30° 80.8° 73.4° - - -
6/27 6:00am 20 5 G 5 74° 20% - - 31° 80.8° 73.5° - - -
6/27 5:50am 10 4 G 5 77° 18% - - 30° 80.8° 74.5° - - -
6/27 5:40am 1 4 G 5 77° 17% - - 29° 80.8° 74.5° - - -
6/27 5:30am 24 5 G 6 76° 18% - - 30° 80.8° 74.5° - - -
6/27 5:20am 40 5 G 7 76° 19% - - 30° 80.8° 74.5° - - -
6/27 5:10am 49 4 G 6 75° 22% - - 33° 80.8° 74.5° - - -
6/27 5:00am 42 5 G 7 76° 21% - - 34° 80.8° 74.5° - - -
6/27 4:50am 41 4 G 5 77° 19% - - 31° 80.8° 74.5° - - -
6/27 4:40am 41 4 G 6 76° 19% - - 31° 80.8° 74.5° - - -
6/27 4:30am 25 4 G 6 75° 20% - - 32° 80.8° 74.5° - - -
6/27 4:20am 37 6 G 9 75° 20% - - 32° 80.8° 74.5° - - -
6/27 4:10am 44 5 G 8 76° 20% - - 32° 80.8° 74.6° - - -
6/27 4:00am 34 4 G 6 76° 20% - - 32° 80.8° 74.6° - - -
6/27 3:50am 28 5 G 6 76° 20% - - 32° 80.8° 74.6° - - -
6/27 3:40am 7 3 G 5 77° 20% - - 33° 80.8° 74.6° - - -
6/27 3:30am 22 3 G 4 77° 21% - - 34° 80.8° 74.6° - - -
6/27 3:20am 43 3 G 4 79° 20% - - 35° 80.8° 74.6° - - -
6/27 3:10am 84 0 G 2 79° 20% - - 35° 80.8° 74.6° - - -
6/27 3:00am 39 1 G 5 79° 20% - - 35° 80.8° 74.6° - - -
6/27 2:50am 37 3 G 4 77° 22% - - 34° 80.8° 74.6° - - -
6/27 2:40am 24 4 G 5 77° 24% - - 37° 80.8° 74.6° - - -
6/27 2:30am 17 2 G 4 78° 23% - - 38° 80.8° 74.6° - - -
6/27 2:20am 75 4 G 6 78° 23% - - 37° 80.8° 74.6° - - -
6/27 2:10am 37 4 G 6 75° 25% - - 37° 80.8° 74.6° - - -
6/27 2:00am 36 5 G 7 75° 26% - - 38° 80.8° 74.9° - - -
6/27 1:50am 19 5 G 6 76° 28% - - 41° 80.8° 74.9° - - -
6/27 1:40am 31 5 G 6 77° 27% - - 41° 80.8° 75.4° - - -
6/27 1:30am 6 5 G 6 77° 26% - - 40° 80.8° 75.4° - - -
6/27 1:20am 13 3 G 6 77° 25% - - 39° 80.8° 75.4° - - -
6/27 1:10am 4 4 G 6 76° 30% - - 42° 80.8° 75.5° - - -
6/27 1:00am 13 4 G 5 77° 28% - - 41° 80.8° 76° - - -
6/27 12:50am 349 2 G 4 80° 23% - - 38° 80.8° 76.5° - - -
6/27 12:40am 282 1 G 3 79° 22% - - 38° 80.8° 76.5° - - -
6/27 12:30am 62 2 G 3 80° 23% - - 38° 80.6° 76.5° - - -
6/27 12:20am 38 2 G 4 78° 29% - - 42° 79° 76.5° - - -
6/27 12:10am 35 3 G 4 77° 31% - - 45° 77.9° 76.9° - - -
6/27 12:00am 37 3 G 4 78° 32% - - 45° 91.3° 73.3° - - -
6/26 11:50pm 37 3 G 5 77° 34% - - 47° 91.3° 73.3° - - -
6/26 11:40pm 61 4 G 8 78° 34% - - 47° 91.3° 73.3° - - -
6/26 11:30pm 43 4 G 6 78° 31% - - 45° 91.3° 73.3° - - -
6/26 11:20pm 31 4 G 6 78° 31% - - 45° 91.3° 73.3° - - -
6/26 11:10pm 32 3 G 5 78° 26% - - 41° 91.3° 73.3° - - -
6/26 11:00pm 36 4 G 5 79° 23% - - 39° 91.3° 73.3° - - -
6/26 10:50pm 35 3 G 4 79° 24% - - 39° 91.3° 73.3° - - -
6/26 10:40pm 16 3 G 4 80° 23% - - 38° 91.3° 73.3° - - -
6/26 10:30pm 24 2 G 3 80° 21% - - 36° 91.3° 73.3° - - -
6/26 10:20pm 24 2 G 3 79° 23% - - 39° 91.3° 73.3° - - -
6/26 10:10pm 14 3 G 4 81° 19% - - 34° 91.3° 73.3° - - -
6/26 10:00pm 306 5 G 8 82° 15% - - 30° 91.3° 73.3° - - -
6/26 9:50pm 291 5 G 9 81° 18% - - 33° 91.3° 73.3° - - -
6/26 9:40pm 284 3 G 7 81° 19% - - 35° 91.3° 73.3° - - -
6/26 9:30pm 285 4 G 8 81° 20% - - 35° 91.3° 73.3° - - -
6/26 9:20pm 282 6 G 13 82° 18% - - 34° 91.3° 73.3° - - -
6/26 9:10pm 290 6 G 14 81° 19% - - 35° 91.3° 73.3° - - -
6/26 9:00pm 301 6 G 10 81° 20% - - 37° 91.3° 73.3° - - -
6/26 8:50pm 307 5 G 9 80° 23% - - 39° 91.3° 73.3° - - -
6/26 8:40pm 303 3 G 6 81° 24% - - 41° 91.3° 73.3° - - -
6/26 8:30pm 317 2 G 4 82° 22% - - 39° 91.3° 73.3° - - -
6/26 8:20pm 319 1 G 4 81° 25% - - 42° 91.3° 73.3° - - -
6/26 8:10pm 191 1 G 3 82° 29% - - 46° 91.3° 73.3° - - -
6/26 8:00pm 207 2 G 4 82° 30% - - 47° 91.3° 73.3° - - -
6/26 7:50pm 199 4 G 5 82° 31% - - 49° 91.3° 73.3° - - -
6/26 7:40pm 208 4 G 6 82° 33% - - 50° 91.3° 73.3° - - -
6/26 7:30pm 200 3 G 5 83° 34% - - 52° 91.3° 73.3° - - -
6/26 7:20pm 209 4 G 5 84° 33% - - 51° 91.3° 73.3° - - -
6/26 7:10pm 208 4 G 6 84° 33% - - 52° 91.3° 73.3° - - -
6/26 7:00pm 209 5 G 6 84° 30% - - 49° 91.3° 73.3° - - -
6/26 6:50pm 224 5 G 7 85° 27% - - 48° 91.3° 73.3° - - -
6/26 6:40pm 227 6 G 10 86° 25% - - 46° 91.3° 73.3° - - -
6/26 6:30pm 226 8 G 11 86° 24% - - 46° 91.3° 73.3° - - -
6/26 6:20pm 226 10 G 14 87° 22% - - 43° 91.3° 73.3° - - -
6/26 6:10pm 225 10 G 13 87° 21% - - 43° 91.3° 73.3° - - -
6/26 6:00pm 223 10 G 14 87° 22% - - 44° 91.3° 73.3° - - -
6/26 5:50pm 225 11 G 14 87° 24% - - 46° 91.3° 73.3° - - -
6/26 5:40pm 223 11 G 14 87° 26% - - 48° 91.3° 73.3° - - -
6/26 5:30pm 221 11 G 14 87° 28% - - 50° 91.3° 73.3° - - -
6/26 5:20pm 219 12 G 16 87° 30% - - 51° 91.3° 73.3° - - -
6/26 5:10pm 216 13 G 16 87° 30% - - 52° 91.3° 73.3° - - -
6/26 5:00pm 219 14 G 18 89° 27% - - 50° 91.3° 73.3° - - -
6/26 4:50pm 228 12 G 16 89° 23% - - 46° 91.3° 73.3° - - -
6/26 4:40pm 225 12 G 17 90° 23% - - 48° 91.3° 73.3° - - -
6/26 4:30pm 223 11 G 16 90° 24% - - 48° 91.3° 73.3° - - -
6/26 4:20pm 220 10 G 16 89° 25% - - 48° 91.3° 73.3° - - -
6/26 4:10pm 222 12 G 16 89° 25% - - 49° 91.3° 73.3° - - -
6/26 4:00pm 228 11 G 16 90° 24% - - 48° 91.3° 73.3° - - -
6/26 3:50pm 230 11 G 17 90° 24% - - 48° 91.3° 73.3° - - -
6/26 3:40pm 214 13 G 17 90° 26% - - 50° 91.3° 73.3° - - -
6/26 3:30pm 210 11 G 17 90° 30% - - 54° 91.3° 73.3° - - -
6/26 3:20pm 222 9 G 14 90° 29% - - 53° 91.3° 73.3° - - -
6/26 3:10pm 211 10 G 17 89° 31% - - 55° 91.3° 73.3° - - -
6/26 3:00pm 212 11 G 15 90° 31% - - 55° 91.3° 73.3° - - -
6/26 2:50pm 221 8 G 14 90° 30% - - 54° 91.3° 73.3° - - -
6/26 2:40pm 217 9 G 15 90° 31% - - 56° 91° 73.3° - - -
6/26 2:30pm 211 9 G 14 89° 34% - - 58° 90.6° 73.3° - - -
6/26 2:20pm 213 11 G 17 88° 36% - - 58° 90.6° 73.3° - - -
6/26 2:10pm 213 11 G 15 89° 35% - - 57° 90.6° 73.3° - - -
6/26 2:00pm 220 9 G 14 90° 32% - - 56° 90.6° 73.3° - - -
6/26 1:50pm 218 9 G 14 88° 35% - - 57° 90.4° 73.3° - - -
6/26 1:40pm 215 9 G 13 88° 35% - - 57° 90.4° 73.3° - - -
6/26 1:30pm 202 9 G 13 88° 37% - - 58° 90.4° 73.3° - - -
6/26 1:20pm 207 9 G 13 88° 35% - - 57° 90.4° 73.3° - - -
6/26 1:10pm 204 10 G 13 88° 35% - - 57° 90.4° 73.3° - - -
6/26 1:00pm 217 9 G 14 88° 33% - - 56° 90.4° 73.3° - - -
6/26 12:50pm 222 9 G 14 89° 34% - - 57° 90.4° 73.3° - - -
6/26 12:40pm 223 9 G 15 88° 35% - - 57° 89.3° 73.3° - - -
6/26 12:30pm 222 9 G 14 88° 35% - - 57° 89° 73.3° - - -
6/26 12:20pm 228 8 G 13 88° 35% - - 57° 88.6° 73.3° - - -
6/26 12:10pm 202 9 G 12 87° 40% - - 60° 88.6° 73.3° - - -
6/26 12:00pm 205 10 G 13 86° 41% - - 59° 88.6° 73.3° - - -
6/26 11:50am 192 10 G 13 85° 47% - - 62° 88.6° 73.3° - - -
6/26 11:40am 198 11 G 13 86° 45% - - 62° 88.6° 73.3° - - -
6/26 11:30am 205 10 G 13 85° 45% - - 61° 88.6° 73.3° - - -
6/26 11:20am 194 10 G 14 85° 47% - - 62° 88.6° 73.3° - - -
6/26 11:10am 196 11 G 14 85° 46% - - 62° 88.6° 73.3° - - -
6/26 11:00am 196 12 G 14 85° 45% - - 61° 88.6° 73.3° - - -
6/26 10:50am 193 10 G 13 85° 41% - - 59° 88.6° 73.3° - - -
6/26 10:40am 192 9 G 11 85° 41% - - 59° 88.6° 73.3° - - -
6/26 10:30am 188 8 G 10 85° 41% - - 59° 88.6° 73.3° - - -
6/26 10:20am 191 9 G 10 85° 38% - - 57° 88.6° 73.3° - - -
6/26 10:10am 188 7 G 9 85° 39% - - 58° 88.6° 73.3° - - -
6/26 10:00am 187 7 G 9 86° 42% - - 60° 88.6° 73.3° - - -
6/26 9:50am 181 6 G 7 86° 43% - - 61° 88.6° 73.3° - - -
6/26 9:40am 178 4 G 7 87° 39% - - 59° 88.6° 73.3° - - -
6/26 9:30am 166 2 G 4 88° 31% - - 54° 88.6° 73.3° - - -
6/26 9:20am 152 2 G 3 88° 29% - - 52° 88.6° 73.3° - - -
6/26 9:10am 165 2 G 4 86° 32% - - 53° 88.6° 73.3° - - -
6/26 9:00am 172 2 G 4 86° 31% - - 52° 88.6° 73.3° - - -
6/26 8:50am 161 2 G 4 87° 27% - - 48° 88.6° 73.3° - - -
6/26 8:40am 151 1 G 3 87° 29% - - 52° 88.6° 73.3° - - -
6/26 8:30am 38 2 G 3 87° 30% - - 53° 88.4° 73.3° - - -
6/26 8:20am 29 1 G 3 86° 27% - - 49° 87.8° 73.3° - - -
6/26 8:10am 12 3 G 4 83° 31% - - 49° 84.9° 73.3° - - -
6/26 8:00am 17 3 G 5 83° 30% - - 48° 84.9° 73.3° - - -
6/26 7:50am 15 3 G 4 83° 28% - - 47° 84.9° 73.3° - - -
6/26 7:40am 26 3 G 5 82° 27% - - 44° 84.9° 73.3° - - -
6/26 7:30am 36 4 G 6 81° 27% - - 44° 84.9° 73.3° - - -
6/26 7:20am 33 4 G 5 82° 29% - - 46° 84.9° 73.3° - - -
6/26 7:10am 36 4 G 7 82° 26% - - 44° 84.9° 73.3° - - -
6/26 7:00am 39 5 G 7 82° 25% - - 42° 84.9° 73.3° - - -
6/26 6:50am 42 6 G 7 81° 24% - - 41° 84.9° 73.3° - - -
6/26 6:40am 36 5 G 7 81° 25% - - 42° 84.9° 73.3° - - -
6/26 6:30am 43 5 G 7 81° 25% - - 42° 84.9° 73.3° - - -
6/26 6:20am 45 6 G 7 78° 29% - - 44° 84.9° 73.3° - - -
6/26 6:10am 39 6 G 8 78° 33% - - 46° 84.9° 73.3° - - -
6/26 6:00am 24 6 G 8 78° 31% - - 45° 84.9° 73.3° - - -